createdAt,value
2023-04-26T00:01:08.527Z,100.00
2023-04-26T00:06:12.507Z,100.00
2023-04-26T00:11:14.691Z,100.00
2023-04-26T00:16:18.686Z,100.00
2023-04-26T00:21:21.558Z,100.00
2023-04-26T00:26:24.488Z,100.00
2023-04-26T00:31:27.422Z,100.00
2023-04-26T00:36:30.185Z,100.00
2023-04-26T00:41:32.907Z,100.00
2023-04-26T00:46:35.524Z,100.00
2023-04-26T00:51:38.649Z,100.00
2023-04-26T00:56:41.743Z,100.00
2023-04-26T01:01:43.929Z,100.00
2023-04-26T01:06:46.880Z,100.00
2023-04-26T01:11:49.916Z,100.00
2023-04-26T01:16:52.720Z,100.00
2023-04-26T01:21:55.329Z,100.00
2023-04-26T01:26:58.492Z,100.00
2023-04-26T01:32:01.306Z,100.00
2023-04-26T01:37:04.313Z,100.00
2023-04-26T01:42:06.983Z,100.00
2023-04-26T01:47:09.712Z,100.00
2023-04-26T01:52:11.846Z,100.00
2023-04-26T01:57:14.448Z,100.00
2023-04-26T02:02:19.173Z,100.00
2023-04-26T02:07:21.762Z,100.00
2023-04-26T02:12:23.869Z,100.00
2023-04-26T02:17:26.796Z,100.00
2023-04-26T02:22:29.933Z,100.00
2023-04-26T02:27:51.893Z,100.00
2023-04-26T02:32:56.090Z,100.00
2023-04-26T02:37:58.919Z,100.00
2023-04-26T02:43:01.849Z,100.00
2023-04-26T02:48:04.581Z,100.00
2023-04-26T02:53:07.360Z,100.00
2023-04-26T02:58:10.135Z,100.00
2023-04-26T03:03:12.951Z,100.00
2023-04-26T03:08:15.810Z,100.00
2023-04-26T03:13:18.728Z,100.00
2023-04-26T03:18:21.755Z,100.00
2023-04-26T03:23:25.637Z,100.00
2023-04-26T03:28:29.512Z,100.00
2023-04-26T03:33:32.560Z,100.00
2023-04-26T03:38:35.237Z,100.00
2023-04-26T03:43:38.374Z,100.00
2023-04-26T03:48:41.785Z,100.00
2023-04-26T03:53:46.978Z,100.00
2023-04-26T03:58:50.069Z,100.00
2023-04-26T04:03:53.195Z,100.00
2023-04-26T04:08:56.421Z,100.00
2023-04-26T04:13:59.874Z,100.00
2023-04-26T04:19:02.502Z,100.00
2023-04-26T04:24:05.905Z,100.00
2023-04-26T04:29:11.551Z,100.00
2023-04-26T04:34:14.895Z,100.00
2023-04-26T04:39:18.040Z,100.00
2023-04-26T04:44:23.052Z,100.00
2023-04-26T04:49:27.615Z,100.00
2023-04-26T04:54:30.629Z,100.00
2023-04-26T04:59:33.642Z,100.00
2023-04-26T05:04:36.862Z,100.00
2023-04-26T05:09:39.849Z,100.00
2023-04-26T05:14:42.971Z,100.00
2023-04-26T05:19:45.844Z,100.00
2023-04-26T05:24:49.551Z,100.00
2023-04-26T05:29:51.820Z,100.00
2023-04-26T05:35:19.835Z,100.00
2023-04-26T05:40:22.640Z,100.00
2023-04-26T05:45:25.698Z,100.00
2023-04-26T05:50:28.422Z,100.00
2023-04-26T05:55:31.256Z,96.50
2023-04-26T06:00:33.899Z,72.76
2023-04-26T06:05:38.859Z,51.13
2023-04-26T06:10:41.704Z,42.81
2023-04-26T06:15:44.523Z,35.54
2023-04-26T06:20:47.639Z,34.83
2023-04-26T06:25:50.592Z,33.31
2023-04-26T06:30:53.334Z,31.83
2023-04-26T06:35:56.105Z,30.12
2023-04-26T06:41:00.413Z,28.63
2023-04-26T06:46:03.177Z,29.29
2023-04-26T06:51:07.642Z,30.98
2023-04-26T06:56:10.477Z,30.17
2023-04-26T07:01:13.560Z,27.88
2023-04-26T07:06:16.904Z,32.38
2023-04-26T07:11:19.586Z,30.48
2023-04-26T07:16:21.899Z,32.65
2023-04-26T07:21:25.659Z,33.55
2023-04-26T07:26:28.325Z,37.36
2023-04-26T07:31:32.688Z,39.68
2023-04-26T07:36:35.300Z,41.13
2023-04-26T07:41:38.014Z,40.93
2023-04-26T07:46:40.319Z,43.77
2023-04-26T07:51:44.594Z,47.08
2023-04-26T07:56:47.241Z,44.44
2023-04-26T08:01:50.257Z,44.13
2023-04-26T08:06:52.914Z,42.37
2023-04-26T08:11:55.678Z,42.12
2023-04-26T08:16:58.379Z,46.39
2023-04-26T08:22:01.228Z,47.72
2023-04-26T08:27:03.939Z,47.53
2023-04-26T08:32:07.555Z,47.44
2023-04-26T08:37:10.437Z,48.24
2023-04-26T08:42:17.405Z,41.96
2023-04-26T08:47:34.655Z,39.56
2023-04-26T08:52:38.476Z,41.43
2023-04-26T08:57:41.444Z,38.87
2023-04-26T09:02:53.687Z,39.38
2023-04-26T09:08:05.517Z,42.54
2023-04-26T09:13:08.149Z,44.06
2023-04-26T09:18:21.589Z,43.31
2023-04-26T09:23:24.456Z,44.94
2023-04-26T09:28:27.634Z,45.90
2023-04-26T09:33:30.340Z,46.50
2023-04-26T09:38:42.987Z,46.25
2023-04-26T09:43:45.624Z,46.30
2023-04-26T09:49:01.700Z,48.00
2023-04-26T09:54:04.326Z,45.04
2023-04-26T09:59:10.900Z,44.50
2023-04-26T10:04:13.797Z,44.06
2023-04-26T10:09:16.430Z,42.21
2023-04-26T10:14:19.092Z,41.28
2023-04-26T10:19:23.016Z,40.43
2023-04-26T10:24:26.248Z,41.35
2023-04-26T10:29:55.171Z,41.35
2023-04-26T10:35:13.890Z,43.28
2023-04-26T10:40:27.816Z,43.01
2023-04-26T10:45:30.610Z,44.18
2023-04-26T10:50:33.445Z,45.70
2023-04-26T10:55:44.066Z,42.32
2023-04-26T11:01:13.819Z,42.72
2023-04-26T11:06:16.466Z,43.72
2023-04-26T11:11:22.489Z,41.90
2023-04-26T11:16:29.517Z,42.76
2023-04-26T11:21:33.062Z,41.21
2023-04-26T11:26:36.788Z,41.88
2023-04-26T11:31:39.412Z,40.89
2023-04-26T11:36:41.727Z,40.98
2023-04-26T11:41:44.415Z,40.76
2023-04-26T11:46:50.855Z,40.82
2023-04-26T11:51:53.836Z,41.08
2023-04-26T11:56:57.094Z,42.22
2023-04-26T12:02:01.913Z,42.45
2023-04-26T12:07:07.558Z,42.78
2023-04-26T12:12:12.645Z,41.24
2023-04-26T12:17:15.547Z,40.66
2023-04-26T12:22:22.430Z,41.16
2023-04-26T12:27:25.022Z,39.64
2023-04-26T12:32:27.540Z,40.71
2023-04-26T12:37:30.158Z,39.68
2023-04-26T12:42:33.086Z,40.95
2023-04-26T12:47:35.842Z,39.44
2023-04-26T12:52:38.445Z,39.23
2023-04-26T12:57:42.629Z,41.75
2023-04-26T13:02:45.024Z,43.03
2023-04-26T13:07:48.167Z,41.44
2023-04-26T13:12:50.338Z,40.99
2023-04-26T13:17:54.071Z,42.07
2023-04-26T13:22:56.229Z,43.41
2023-04-26T13:27:59.546Z,43.70
2023-04-26T13:33:01.763Z,43.36
2023-04-26T13:38:04.553Z,42.43
2023-04-26T13:43:07.149Z,43.37
2023-04-26T13:48:09.909Z,42.76
2023-04-26T13:53:12.667Z,43.60
2023-04-26T13:58:15.730Z,44.04
2023-04-26T14:03:18.779Z,44.18
2023-04-26T14:08:21.426Z,44.14
2023-04-26T14:13:23.514Z,44.37
2023-04-26T14:18:25.725Z,45.00
2023-04-26T14:23:28.204Z,45.21
2023-04-26T14:28:30.966Z,45.74
2023-04-26T14:33:33.454Z,45.60
2023-04-26T14:38:35.808Z,45.36
2023-04-26T14:43:38.576Z,46.08
2023-04-26T14:48:41.500Z,46.41
2023-04-26T14:53:44.134Z,46.80
2023-04-26T14:58:46.805Z,47.71
2023-04-26T15:03:49.533Z,47.89
2023-04-26T15:08:52.213Z,48.44
2023-04-26T15:13:54.274Z,49.10
2023-04-26T15:18:56.780Z,48.77
2023-04-26T15:24:01.244Z,48.91
2023-04-26T15:29:03.992Z,51.82
2023-04-26T15:34:06.748Z,54.48
2023-04-26T15:39:09.330Z,50.26
2023-04-26T15:44:12.660Z,51.27
2023-04-26T15:49:15.449Z,50.19
2023-04-26T15:54:17.632Z,50.68
2023-04-26T15:59:20.403Z,66.14
2023-04-26T16:04:22.771Z,56.03
2023-04-26T16:09:26.175Z,84.96
2023-04-26T16:14:28.353Z,61.34
2023-04-26T16:19:31.828Z,56.75
2023-04-26T16:24:34.101Z,53.98
2023-04-26T16:29:36.739Z,66.52
2023-04-26T16:34:38.807Z,53.71
2023-04-26T16:39:41.656Z,65.94
2023-04-26T16:44:44.248Z,53.13
2023-04-26T16:49:46.914Z,55.96
2023-04-26T16:54:49.510Z,52.94
2023-04-26T16:59:52.229Z,52.81
2023-04-26T17:04:55.384Z,51.76
2023-04-26T17:09:58.407Z,51.00
2023-04-26T17:15:04.444Z,50.81
2023-04-26T17:20:10.131Z,51.82
2023-04-26T17:25:14.181Z,51.37
2023-04-26T17:30:16.974Z,52.36
2023-04-26T17:35:19.336Z,52.82
2023-04-26T17:40:21.979Z,53.34
2023-04-26T17:45:24.639Z,53.75
2023-04-26T17:50:27.328Z,53.88
2023-04-26T17:55:29.966Z,54.73
2023-04-26T18:00:32.651Z,54.83
2023-04-26T18:05:35.321Z,55.98
2023-04-26T18:10:37.999Z,56.04
2023-04-26T18:15:43.752Z,56.51
2023-04-26T18:20:46.383Z,58.17
2023-04-26T18:25:50.681Z,60.34
2023-04-26T18:31:08.386Z,61.95
2023-04-26T18:36:11.143Z,63.76
2023-04-26T18:41:13.984Z,65.49
2023-04-26T18:46:16.808Z,68.29
2023-04-26T18:51:19.682Z,70.42
2023-04-26T18:56:22.845Z,78.44
2023-04-26T19:01:25.657Z,82.68
2023-04-26T19:06:28.444Z,81.88
2023-04-26T19:11:31.461Z,83.98
2023-04-26T19:16:35.469Z,84.17
2023-04-26T19:21:38.280Z,87.67
2023-04-26T19:26:40.417Z,91.42
2023-04-26T19:31:43.178Z,95.98
2023-04-26T19:36:45.663Z,97.26
2023-04-26T19:41:48.235Z,98.64
2023-04-26T19:46:50.374Z,100.00
2023-04-26T19:51:53.024Z,100.00
2023-04-26T19:56:55.705Z,100.00
2023-04-26T20:01:57.860Z,100.00
2023-04-26T20:07:19.005Z,100.00
2023-04-26T20:12:21.710Z,100.00
2023-04-26T20:17:24.465Z,100.00
2023-04-26T20:22:27.127Z,100.00
2023-04-26T20:27:29.665Z,100.00
2023-04-26T20:32:32.343Z,100.00
2023-04-26T20:37:36.069Z,100.00
2023-04-26T20:42:38.605Z,100.00
2023-04-26T20:47:41.352Z,100.00
2023-04-26T20:52:43.990Z,100.00
2023-04-26T20:58:05.150Z,100.00
2023-04-26T21:03:08.968Z,100.00
2023-04-26T21:08:13.982Z,100.00
2023-04-26T21:13:19.247Z,100.00
2023-04-26T21:18:21.852Z,100.00
2023-04-26T21:23:24.645Z,100.00
2023-04-26T21:28:27.273Z,100.00
2023-04-26T21:33:29.837Z,100.00
2023-04-26T21:38:32.443Z,100.00
2023-04-26T21:43:35.137Z,100.00
2023-04-26T21:48:39.496Z,100.00
2023-04-26T21:53:42.136Z,100.00
2023-04-26T21:58:44.727Z,100.00
2023-04-26T22:03:47.290Z,100.00
2023-04-26T22:08:49.472Z,100.00
2023-04-26T22:13:52.163Z,100.00
2023-04-26T22:18:55.255Z,100.00
2023-04-26T22:23:57.493Z,100.00
2023-04-26T22:29:00.301Z,100.00
2023-04-26T22:34:02.673Z,100.00
2023-04-26T22:39:05.358Z,100.00
2023-04-26T22:44:08.453Z,100.00
2023-04-26T22:49:11.043Z,100.00
2023-04-26T22:54:13.927Z,100.00
2023-04-26T22:59:16.496Z,100.00
2023-04-26T23:04:19.139Z,100.00
2023-04-26T23:09:21.841Z,100.00
2023-04-26T23:14:24.506Z,100.00
2023-04-26T23:19:27.153Z,100.00
2023-04-26T23:24:29.684Z,100.00
2023-04-26T23:29:32.238Z,100.00
2023-04-26T23:34:34.907Z,100.00
2023-04-26T23:39:37.474Z,100.00
2023-04-26T23:44:40.143Z,100.00
2023-04-26T23:49:42.677Z,100.00
2023-04-26T23:54:45.418Z,100.00
2023-04-26T23:59:48.073Z,100.00
